Time;durP1;ratioP1;P1;durP2;ratioP2;P2;SDS_P1;SDS_P2;PMS_P1;PMS_P2;Temp;Humidity;BMP_temperature;BMP_pressure;BME280_temperature;BME280_humidity;BME280_pressure;Samples;Min_cycle;Max_cycle;Signal;HPM_P1;HPM_P2
2021/06/19 00:01:47;;;;;;;14.77;5.85;;;;;;;18.10;100.00;94626.28;10532598;28;20302;-73
2021/06/19 00:06:47;;;;;;;11.97;6.60;;;;;;;18.12;100.00;94624.03;10531994;28;20024;-73
2021/06/19 00:11:48;;;;;;;13.05;6.80;;;;;;;17.90;100.00;94623.09;10530980;28;20031;-73
2021/06/19 00:16:49;;;;;;;6.90;5.73;;;;;;;18.02;100.00;94621.66;10531525;28;20055;-73
2021/06/19 00:21:49;;;;;;;7.35;5.82;;;;;;;18.14;100.00;94604.66;10530349;28;20028;-73
2021/06/19 00:26:51;;;;;;;14.93;6.70;;;;;;;18.13;100.00;94622.91;10531042;28;20024;-73
2021/06/19 00:31:52;;;;;;;12.05;6.30;;;;;;;18.19;100.00;94613.44;10530841;28;20506;-73
2021/06/19 00:36:52;;;;;;;8.10;6.43;;;;;;;18.30;100.00;94611.19;10530401;28;20047;-73
2021/06/19 00:41:52;;;;;;;9.57;5.97;;;;;;;18.31;100.00;94607.34;10530443;28;20073;-73
2021/06/19 00:46:54;;;;;;;9.80;7.30;;;;;;;18.33;100.00;94607.81;10530757;28;20028;-73
2021/06/19 00:51:55;;;;;;;14.73;6.80;;;;;;;18.43;100.00;94599.31;10530496;28;20032;-73
2021/06/19 00:56:55;;;;;;;11.90;6.88;;;;;;;18.50;100.00;94603.44;10529820;28;20475;-73
2021/06/19 01:01:56;;;;;;;10.70;6.95;;;;;;;18.51;100.00;94588.69;10530040;28;20028;-73
2021/06/19 01:06:58;;;;;;;14.33;7.80;;;;;;;18.51;100.00;94591.44;10530813;28;20032;-73
2021/06/19 01:11:59;;;;;;;13.10;8.40;;;;;;;18.57;100.00;94588.19;10529858;28;20368;-73
2021/06/19 01:17:00;;;;;;;15.25;8.40;;;;;;;18.59;100.00;94585.16;10530005;28;20046;-73
2021/06/19 01:22:00;;;;;;;14.05;7.80;;;;;;;18.60;100.00;94576.66;10529802;28;20556;-73
2021/06/19 01:27:00;;;;;;;8.83;7.93;;;;;;;18.62;100.00;94579.81;10529159;28;20395;-73
2021/06/19 01:32:01;;;;;;;11.50;8.23;;;;;;;18.61;100.00;94580.16;10529196;28;20306;-73
2021/06/19 01:37:01;;;;;;;11.38;7.55;;;;;;;18.58;100.00;94580.81;10529512;28;20028;-73
2021/06/19 01:42:02;;;;;;;9.20;5.97;;;;;;;18.60;100.00;94582.09;10528914;28;20028;-73
2021/06/19 01:47:03;;;;;;;8.63;6.63;;;;;;;18.62;100.00;94585.28;10529083;28;20395;-73
2021/06/19 01:52:04;;;;;;;10.45;6.00;;;;;;;18.57;100.00;94590.91;10528985;28;20128;-73
2021/06/19 01:57:06;;;;;;;7.63;5.85;;;;;;;18.58;100.00;94589.00;10528364;28;20099;-73
2021/06/19 02:02:07;;;;;;;9.23;6.63;;;;;;;18.61;100.00;94600.03;10528775;28;20573;-73
2021/06/19 02:07:07;;;;;;;8.67;5.17;;;;;;;18.60;100.00;94603.06;10528759;28;20049;-73
2021/06/19 02:12:08;;;;;;;7.57;5.00;;;;;;;18.59;100.00;94606.91;10528254;28;20107;-73
2021/06/19 02:17:09;;;;;;;12.90;5.00;;;;;;;18.60;100.00;94617.47;10528566;28;20149;-73
2021/06/19 02:22:09;;;;;;;7.20;6.03;;;;;;;18.59;100.00;94624.03;10526679;28;20020;-73
2021/06/19 02:27:14;;;;;;;13.03;7.90;;;;;;;18.45;100.00;94645.22;10526346;28;20115;-73
2021/06/19 02:32:14;;;;;;;10.40;7.25;;;;;;;18.19;100.00;94651.53;10526830;28;20052;-73
2021/06/19 02:37:15;;;;;;;9.17;6.77;;;;;;;18.17;100.00;94653.78;10527577;28;20036;-73
2021/06/19 02:42:15;;;;;;;7.93;5.10;;;;;;;18.00;100.00;94649.19;10527163;28;20098;-73
2021/06/19 02:47:15;;;;;;;14.30;6.73;;;;;;;17.74;100.00;94641.81;10535780;28;20278;-73
2021/06/19 02:52:16;;;;;;;12.27;7.67;;;;;;;17.27;100.00;94640.84;10535151;28;20107;-73
2021/06/19 02:57:16;;;;;;;9.80;6.10;;;;;;;17.12;100.00;94642.09;10533602;28;20048;-73
2021/06/19 03:02:17;;;;;;;8.47;6.17;;;;;;;16.88;100.00;94633.28;10532486;28;20024;-72
2021/06/19 03:07:17;;;;;;;6.03;5.03;;;;;;;16.77;100.00;94620.28;10533866;28;20116;-73
2021/06/19 03:12:17;;;;;;;8.37;5.43;;;;;;;16.75;100.00;94617.88;10534389;28;20142;-73
2021/06/19 03:17:18;;;;;;;5.73;5.13;;;;;;;16.82;100.00;94622.84;10534435;28;20081;-73
2021/06/19 03:22:18;;;;;;;6.78;5.15;;;;;;;16.75;100.00;94621.38;10534490;28;20028;-73
2021/06/19 03:27:19;;;;;;;6.13;4.90;;;;;;;16.74;100.00;94617.09;10534235;28;20520;-72
2021/06/19 03:32:20;;;;;;;6.03;4.78;;;;;;;16.72;100.00;94637.50;10533912;28;20380;-73
2021/06/19 03:37:20;;;;;;;7.40;4.73;;;;;;;16.77;100.00;94623.00;10534137;28;20032;-73
2021/06/19 03:42:21;;;;;;;4.60;3.80;;;;;;;16.84;100.00;94636.88;10533841;28;20365;-73
2021/06/19 03:47:21;;;;;;;5.82;4.72;;;;;;;16.97;100.00;94630.59;10533422;28;20059;-72
2021/06/19 03:52:21;;;;;;;7.57;4.23;;;;;;;17.04;100.00;94616.53;10533355;28;20039;-73
2021/06/19 03:57:24;;;;;;;6.37;4.67;;;;;;;17.06;100.00;94617.81;10533160;28;20024;-73
2021/06/19 04:02:25;;;;;;;7.57;4.90;;;;;;;17.29;100.00;94617.69;10532302;28;20111;-73
2021/06/19 04:07:26;;;;;;;8.57;4.75;;;;;;;17.65;100.00;94622.00;10532813;28;20036;-72
2021/06/19 04:12:26;;;;;;;5.57;3.83;;;;;;;17.87;100.00;94610.13;10532181;28;20769;-73
2021/06/19 04:17:26;;;;;;;4.00;3.60;;;;;;;18.05;100.00;94608.22;10531796;28;20097;-73
2021/06/19 04:22:27;;;;;;;4.80;4.10;;;;;;;18.20;100.00;94598.72;10532219;28;20270;-73
2021/06/19 04:27:27;;;;;;;7.00;4.87;;;;;;;18.26;100.00;94605.59;10532005;28;20281;-73
2021/06/19 04:32:27;;;;;;;6.28;3.92;;;;;;;18.42;100.00;94599.63;10531437;28;20111;-73
2021/06/19 04:37:28;;;;;;;7.90;4.53;;;;;;;18.57;100.00;94599.09;10531262;28;20567;-73
2021/06/19 04:42:35;;;;;;;7.40;4.57;;;;;;;18.81;100.00;94594.97;10531439;28;20031;-73
2021/06/19 04:47:35;;;;;;;12.52;5.57;;;;;;;18.99;100.00;94613.94;10530923;28;20031;-73
2021/06/19 04:52:40;;;;;;;11.57;5.15;;;;;;;19.12;100.00;94615.63;10530739;28;20035;-73
2021/06/19 04:57:42;;;;;;;8.88;4.60;;;;;;;19.23;100.00;94616.84;10530219;28;20483;-73
2021/06/19 05:02:42;;;;;;;8.43;4.38;;;;;;;19.37;100.00;94621.22;10530571;28;20116;-73
2021/06/19 05:07:42;;;;;;;11.70;5.70;;;;;;;19.50;100.00;94624.81;10529906;28;20032;-73
2021/06/19 05:12:43;;;;;;;9.03;4.90;;;;;;;19.90;100.00;94618.88;10529896;28;20304;-73
2021/06/19 05:17:44;;;;;;;5.95;3.90;;;;;;;19.99;100.00;94622.34;10528601;28;20028;-73
2021/06/19 05:22:44;;;;;;;7.63;4.13;;;;;;;20.53;100.00;94623.38;10529908;28;20024;-73
2021/06/19 05:27:45;;;;;;;7.80;3.97;;;;;;;20.82;100.00;94611.47;10529147;28;20064;-73
2021/06/19 05:32:45;;;;;;;9.38;4.18;;;;;;;22.12;100.00;94618.03;10528764;28;20052;-73
2021/06/19 05:37:45;;;;;;;12.77;4.40;;;;;;;23.52;100.00;94621.44;10529141;28;20024;-73
2021/06/19 05:42:46;;;;;;;6.00;3.50;;;;;;;24.62;100.00;94617.72;10527350;28;20035;-73
2021/06/19 05:47:46;;;;;;;4.95;3.83;;;;;;;24.48;100.00;94628.44;10527740;28;20028;-73
2021/06/19 05:52:47;;;;;;;4.13;3.37;;;;;;;25.00;100.00;94618.75;10528226;28;20399;-73
2021/06/19 05:57:47;;;;;;;7.57;2.83;;;;;;;25.63;100.00;94618.50;10529177;28;20282;-73
2021/06/19 06:02:48;;;;;;;13.32;3.35;;;;;;;25.06;100.00;94619.22;10528148;28;20090;-73
2021/06/19 06:07:48;;;;;;;6.97;3.57;;;;;;;25.09;100.00;94618.50;10528793;28;20093;-73
2021/06/19 06:12:48;;;;;;;15.10;3.30;;;;;;;25.57;100.00;94631.78;10528861;28;20110;-73
2021/06/19 06:17:49;;;;;;;4.00;2.70;;;;;;;25.18;100.00;94624.50;10528996;28;20495;-73
2021/06/19 06:22:51;;;;;;;5.00;3.40;;;;;;;25.61;100.00;94624.38;10536705;28;20467;-73
2021/06/19 06:27:52;;;;;;;6.78;4.18;;;;;;;25.60;100.00;94625.53;10536552;28;20037;-73
2021/06/19 06:32:52;;;;;;;9.63;4.10;;;;;;;25.20;100.00;94622.19;10535305;28;20081;-73
2021/06/19 06:37:52;;;;;;;5.33;3.47;;;;;;;24.01;100.00;94633.06;10532247;28;20031;-73
2021/06/19 06:42:53;;;;;;;5.70;3.78;;;;;;;22.81;100.00;94628.78;10532545;28;20039;-73
2021/06/19 06:47:54;;;;;;;8.20;5.88;;;;;;;20.64;100.00;94633.50;10532251;28;20040;-72
2021/06/19 06:52:54;;;;;;;10.93;7.77;;;;;;;19.79;100.00;94645.75;10532467;28;20032;-72
2021/06/19 06:57:55;;;;;;;10.07;6.80;;;;;;;19.50;100.00;94646.63;10532972;28;20365;-72
2021/06/19 07:02:55;;;;;;;10.18;7.38;;;;;;;19.63;100.00;94653.72;10532706;28;20024;-72
2021/06/19 07:07:55;;;;;;;10.00;7.80;;;;;;;20.13;100.00;94647.38;10532205;28;20032;-72
2021/06/19 07:12:56;;;;;;;16.45;6.07;;;;;;;20.75;100.00;94633.91;10532198;28;20290;-73
2021/06/19 07:17:56;;;;;;;13.17;6.40;;;;;;;21.43;100.00;94613.31;10532058;28;20103;-73
2021/06/19 07:22:57;;;;;;;8.93;6.23;;;;;;;21.82;100.00;94601.94;10532569;28;20028;-73
2021/06/19 07:27:59;;;;;;;10.18;6.70;;;;;;;23.02;100.00;94612.06;10533115;28;20045;-73
2021/06/19 07:32:59;;;;;;;7.18;4.78;;;;;;;24.39;100.00;94591.03;10529143;28;89915;-73
2021/06/19 07:37:59;;;;;;;7.00;5.40;;;;;;;25.29;100.00;94588.13;10534079;28;20028;-73
2021/06/19 07:43:00;;;;;;;9.33;3.23;;;;;;;27.61;100.00;94590.06;10533661;28;20399;-73
2021/06/19 07:48:01;;;;;;;10.15;3.50;;;;;;;27.67;100.00;94579.44;10533792;28;20475;-73
2021/06/19 07:53:01;;;;;;;4.97;2.90;;;;;;;29.19;98.25;94575.00;10534268;28;20159;-73
2021/06/19 07:58:02;;;;;;;4.17;3.50;;;;;;;27.62;100.00;94583.38;10534063;28;20063;-73
2021/06/19 08:03:03;;;;;;;10.98;3.92;;;;;;;28.39;100.00;94572.19;10533221;28;20024;-73
2021/06/19 08:08:03;;;;;;;10.60;3.88;;;;;;;29.05;90.23;94578.59;10542686;28;20035;-73
2021/06/19 08:13:04;;;;;;;6.47;2.63;;;;;;;29.86;85.53;94569.75;10533227;28;20158;-73
2021/06/19 08:18:04;;;;;;;5.57;3.10;;;;;;;28.36;92.23;94573.00;10533597;28;20043;-73
2021/06/19 08:23:05;;;;;;;5.47;3.90;;;;;;;29.52;83.19;94571.00;10532848;28;20076;-73
2021/06/19 08:28:05;;;;;;;7.97;3.70;;;;;;;31.32;74.30;94569.19;10532924;28;20028;-73
2021/06/19 08:33:05;;;;;;;10.53;3.80;;;;;;;31.28;78.49;94565.66;10532712;28;20044;-73
2021/06/19 08:38:06;;;;;;;3.67;3.10;;;;;;;30.99;70.72;94550.03;10532468;28;20034;-73
2021/06/19 08:43:06;;;;;;;6.03;3.10;;;;;;;31.93;69.32;94549.09;10530969;28;20103;-73
2021/06/19 08:48:07;;;;;;;4.43;3.05;;;;;;;33.00;57.39;94540.41;10532206;28;20824;-73
2021/06/19 08:53:07;;;;;;;8.30;3.05;;;;;;;35.11;48.85;94526.50;10531831;28;20522;-73
2021/06/19 08:58:08;;;;;;;3.33;2.47;;;;;;;36.23;40.34;94530.59;10531507;28;20045;-73
2021/06/19 09:03:23;;;;;;;4.80;2.73;;;;;;;34.44;44.06;94519.31;10531414;28;20036;-73
2021/06/19 09:08:25;;;;;;;4.00;2.63;;;;;;;34.01;48.37;94516.22;10531581;28;20490;-73
2021/06/19 09:13:25;;;;;;;3.45;2.78;;;;;;;32.28;50.51;94510.91;10531019;28;20461;-72
2021/06/19 09:18:28;;;;;;;5.82;3.03;;;;;;;32.98;54.30;94503.84;10530814;28;20088;-73
2021/06/19 09:23:39;;;;;;;11.52;4.13;;;;;;;29.89;68.30;94506.03;10530783;28;20024;-73
2021/06/19 09:29:09;;;;;;;8.48;3.70;;;;;;;26.90;96.74;94512.00;10530355;28;20499;-72
2021/06/19 09:34:20;;;;;;;6.25;4.32;;;;;;;25.42;100.00;94505.03;10529170;28;20950;-72
2021/06/19 09:39:26;;;;;;;7.60;4.03;;;;;;;28.06;100.00;94502.28;10529631;28;20027;-73
2021/06/19 09:44:42;;;;;;;6.90;3.63;;;;;;;29.11;70.51;94500.31;10527826;28;20016;-72
2021/06/19 09:49:46;;;;;;;4.22;3.35;;;;;;;27.03;84.79;94508.88;10544322;28;20027;-72
2021/06/19 09:54:58;;;;;;;6.20;3.70;;;;;;;26.47;100.00;94510.84;10529748;28;20028;-72
2021/06/19 10:00:01;;;;;;;8.57;4.75;;;;;;;25.41;100.00;94508.94;10529920;28;20024;-73
2021/06/19 10:05:02;;;;;;;7.50;5.57;;;;;;;24.39;100.00;94518.78;10529620;28;20390;-72
2021/06/19 10:10:11;;;;;;;9.52;5.38;;;;;;;23.79;100.00;94520.09;10529622;28;20038;-73
2021/06/19 10:15:14;;;;;;;7.57;5.18;;;;;;;23.43;100.00;94515.84;10532847;28;20091;-72
2021/06/19 10:20:16;;;;;;;8.57;4.63;;;;;;;24.46;100.00;94509.88;10527981;28;20460;-72
2021/06/19 10:25:21;;;;;;;4.35;3.95;;;;;;;25.23;100.00;94505.94;10528708;28;20024;-73
2021/06/19 10:30:24;;;;;;;5.60;3.72;;;;;;;25.48;100.00;94490.94;10528943;28;20035;-72
2021/06/19 10:35:49;;;;;;;3.05;2.63;;;;;;;29.59;86.83;94474.06;10528469;28;20071;-73
2021/06/19 10:40:51;;;;;;;4.47;1.95;;;;;;;32.68;54.46;94474.91;10529108;28;20487;-75
2021/06/19 10:45:53;;;;;;;4.70;2.10;;;;;;;35.56;43.00;94462.22;10529032;28;20032;-74
2021/06/19 10:50:54;;;;;;;5.13;2.30;;;;;;;37.73;36.48;94452.44;10527785;28;20039;-74
2021/06/19 10:55:57;;;;;;;3.43;1.93;;;;;;;39.05;34.52;94437.22;10528615;28;20023;-74
2021/06/19 11:01:02;;;;;;;9.27;2.35;;;;;;;37.53;38.57;94438.78;10528480;28;20028;-73
2021/06/19 11:06:16;;;;;;;6.03;3.23;;;;;;;33.60;49.81;94439.41;10532572;28;20036;-73
2021/06/19 11:11:16;;;;;;;4.68;2.67;;;;;;;31.63;60.40;94436.72;10535866;28;20024;-73
2021/06/19 11:16:44;;;;;;;3.33;2.78;;;;;;;28.38;76.25;94451.75;10535894;28;20041;-73
2021/06/19 11:21:44;;;;;;;5.20;2.92;;;;;;;26.73;92.69;94466.56;10535835;28;20016;-73
2021/06/19 11:26:57;;;;;;;4.33;2.87;;;;;;;25.11;100.00;94462.16;10535461;28;20104;-73
2021/06/19 11:31:58;;;;;;;3.28;2.97;;;;;;;24.85;100.00;94471.25;10534206;28;20519;-73
2021/06/19 11:36:59;;;;;;;6.57;3.70;;;;;;;24.59;100.00;94478.31;10532560;28;20032;-73
2021/06/19 11:42:00;;;;;;;9.85;3.50;;;;;;;24.36;100.00;94490.13;10531842;28;20023;-73
2021/06/19 11:47:07;;;;;;;6.72;3.05;;;;;;;23.48;100.00;94532.78;10531790;28;20536;-73
2021/06/19 11:52:10;;;;;;;13.85;4.07;;;;;;;21.78;100.00;94565.50;10532296;28;20031;-73
2021/06/19 11:57:22;;;;;;;3.95;2.80;;;;;;;19.59;100.00;94599.09;10530669;28;20027;-72
2021/06/19 12:02:22;;;;;;;21.98;5.82;;;;;;;17.95;100.00;94591.47;10532202;28;20031;-72
2021/06/19 12:07:26;;;;;;;7.70;5.00;;;;;;;17.44;100.00;94605.53;10532028;28;20765;-72
2021/06/19 12:12:26;;;;;;;14.75;5.85;;;;;;;17.05;100.00;94612.69;10531125;28;20032;-72
2021/06/19 12:17:26;;;;;;;10.47;5.83;;;;;;;17.01;100.00;94630.72;10530510;28;20020;-72
2021/06/19 12:22:27;;;;;;;9.83;7.17;;;;;;;17.19;100.00;94626.13;10531540;28;20024;-72
2021/06/19 12:27:27;;;;;;;10.90;6.13;;;;;;;17.45;100.00;94622.66;10530554;28;20024;-72
2021/06/19 12:32:41;;;;;;;16.47;7.27;;;;;;;17.67;100.00;94606.16;10529318;28;20137;-72
2021/06/19 12:37:55;;;;;;;11.25;6.75;;;;;;;17.72;100.00;94592.41;10530265;28;21026;-72
2021/06/19 12:42:58;;;;;;;14.65;6.75;;;;;;;17.72;100.00;94572.56;10530272;28;20046;-72
2021/06/19 12:47:59;;;;;;;9.73;6.88;;;;;;;17.82;100.00;94566.81;10530167;28;20024;-72
2021/06/19 12:53:03;;;;;;;13.20;7.88;;;;;;;18.23;100.00;94561.94;10529658;28;20548;-72
2021/06/19 12:58:15;;;;;;;8.98;6.82;;;;;;;18.80;100.00;94582.47;10529686;28;20028;-72
2021/06/19 13:03:19;;;;;;;10.07;6.47;;;;;;;19.20;100.00;94567.66;10529361;28;20477;-72
2021/06/19 13:08:22;;;;;;;11.50;6.50;;;;;;;19.49;100.00;94544.97;10529437;28;20391;-72
2021/06/19 13:13:43;;;;;;;12.48;6.95;;;;;;;19.92;100.00;94526.63;10528674;28;20025;-72
2021/06/19 13:19:01;;;;;;;11.85;7.07;;;;;;;20.66;100.00;94529.41;10529366;28;20044;-73
2021/06/19 13:24:20;;;;;;;11.13;6.50;;;;;;;21.22;100.00;94520.56;10528692;28;20020;-72
2021/06/19 13:29:23;;;;;;;17.77;6.28;;;;;;;21.50;100.00;94508.84;10527918;28;20032;-73
2021/06/19 13:34:24;;;;;;;9.20;5.50;;;;;;;21.47;100.00;94504.84;10528025;28;20052;-73
2021/06/19 13:39:27;;;;;;;11.68;5.63;;;;;;;21.42;100.00;94523.44;10528362;28;20066;-72
2021/06/19 13:44:30;;;;;;;11.57;5.72;;;;;;;21.62;100.00;94533.44;10527353;28;20114;-73
2021/06/19 13:49:31;;;;;;;9.75;5.10;;;;;;;21.87;100.00;94530.56;10528081;28;20016;-72
2021/06/19 13:54:40;;;;;;;5.43;4.47;;;;;;;21.73;100.00;94535.69;10527592;28;20031;-72
2021/06/19 13:59:42;;;;;;;7.63;5.32;;;;;;;21.60;100.00;94540.38;10528007;28;20292;-72
2021/06/19 14:04:42;;;;;;;11.65;4.60;;;;;;;21.65;100.00;94549.13;10527725;28;20028;-72
2021/06/19 14:09:43;;;;;;;3.67;3.27;;;;;;;21.33;100.00;94540.78;10527330;28;20031;-72
2021/06/19 14:14:43;;;;;;;4.50;4.10;;;;;;;21.19;100.00;94548.59;10529576;28;20281;-72
2021/06/19 14:19:43;;;;;;;7.13;4.53;;;;;;;20.76;100.00;94542.63;10529408;28;20042;-72
2021/06/19 14:24:44;;;;;;;7.20;5.17;;;;;;;20.30;100.00;94550.91;10528229;28;20016;-72
2021/06/19 14:29:44;;;;;;;7.60;5.93;;;;;;;20.21;100.00;94555.66;10529233;28;20024;-73
2021/06/19 14:34:44;;;;;;;17.63;6.00;;;;;;;20.10;100.00;94554.50;10529078;28;20092;-73
2021/06/19 14:39:45;;;;;;;7.40;5.33;;;;;;;19.85;100.00;94549.00;10530182;28;20110;-73
2021/06/19 14:44:45;;;;;;;14.33;6.80;;;;;;;19.77;100.00;94534.28;10536752;28;20028;-73
2021/06/19 14:49:45;;;;;;;10.33;6.83;;;;;;;19.83;100.00;94534.91;10536858;28;20043;-73
2021/06/19 14:54:46;;;;;;;10.13;7.30;;;;;;;19.72;100.00;94530.97;10536739;28;20027;-73
2021/06/19 14:59:46;;;;;;;9.25;7.10;;;;;;;19.70;100.00;94525.06;10536341;28;20024;-73
2021/06/19 15:04:46;;;;;;;10.57;8.63;;;;;;;19.30;100.00;94534.56;10536465;28;20123;-73
2021/06/19 15:09:47;;;;;;;11.70;8.63;;;;;;;19.05;100.00;94545.34;10534757;28;20027;-73
2021/06/19 15:14:47;;;;;;;11.03;8.77;;;;;;;19.01;100.00;94558.00;10536085;28;20036;-73
2021/06/19 15:19:48;;;;;;;12.63;8.83;;;;;;;19.06;100.00;94574.16;10536158;28;20486;-73
2021/06/19 15:24:48;;;;;;;12.48;8.63;;;;;;;19.41;100.00;94571.19;10535832;28;20278;-73
2021/06/19 15:29:48;;;;;;;11.57;8.63;;;;;;;19.58;100.00;94561.25;10535538;28;20031;-73
2021/06/19 15:34:50;;;;;;;12.27;9.97;;;;;;;19.65;100.00;94547.88;10535148;28;20044;-73
2021/06/19 15:39:52;;;;;;;16.77;10.93;;;;;;;19.75;100.00;94541.22;10534983;28;20101;-73
2021/06/19 15:44:52;;;;;;;9.82;8.18;;;;;;;19.84;100.00;94531.03;10534317;28;20047;-73
2021/06/19 15:49:52;;;;;;;12.10;8.23;;;;;;;19.96;100.00;94533.00;10533965;28;20031;-73
2021/06/19 15:54:54;;;;;;;10.13;8.20;;;;;;;20.02;100.00;94539.03;10531641;28;20974;-73
2021/06/19 15:59:54;;;;;;;16.25;8.68;;;;;;;20.03;100.00;94538.69;10532285;28;20282;-73
2021/06/19 16:04:55;;;;;;;11.13;8.53;;;;;;;20.10;100.00;94540.88;10531928;28;20024;-73
2021/06/19 16:09:55;;;;;;;9.53;6.40;;;;;;;20.23;100.00;94542.47;10531898;28;20063;-73
2021/06/19 16:14:55;;;;;;;6.10;4.47;;;;;;;20.08;100.00;94516.66;10531691;28;20703;-73
2021/06/19 16:19:56;;;;;;;7.77;4.43;;;;;;;20.12;100.00;94520.28;10531575;28;20107;-73
2021/06/19 16:24:56;;;;;;;8.07;4.40;;;;;;;19.88;100.00;94517.53;10531544;28;20270;-73
2021/06/19 16:29:56;;;;;;;8.63;5.20;;;;;;;19.94;100.00;94516.97;10530973;28;20280;-73
2021/06/19 16:34:57;;;;;;;7.93;4.93;;;;;;;19.93;100.00;94520.03;10530963;28;20489;-73
2021/06/19 16:39:57;;;;;;;9.17;5.07;;;;;;;19.60;100.00;94499.00;10530133;28;20270;-73
2021/06/19 16:44:58;;;;;;;6.05;4.80;;;;;;;19.58;100.00;94525.81;10530699;28;20111;-73
2021/06/19 16:49:58;;;;;;;5.50;4.73;;;;;;;19.57;100.00;94554.22;10530775;28;20073;-73
2021/06/19 16:54:58;;;;;;;10.60;5.53;;;;;;;19.45;100.00;94552.22;10531387;28;20384;-73
2021/06/19 16:59:59;;;;;;;6.20;5.23;;;;;;;19.29;100.00;94549.31;10530763;28;20071;-73
2021/06/19 17:04:59;;;;;;;6.10;4.70;;;;;;;18.85;100.00;94544.16;10529672;28;21120;-73
2021/06/19 17:10:00;;;;;;;11.45;6.22;;;;;;;19.00;100.00;94553.69;10529833;28;20027;-73
2021/06/19 17:15:00;;;;;;;8.65;5.70;;;;;;;19.07;100.00;94551.22;10529791;28;20036;-73
2021/06/19 17:20:01;;;;;;;7.20;5.73;;;;;;;19.25;100.00;94557.34;10530009;28;20032;-73
2021/06/19 17:25:02;;;;;;;6.80;5.70;;;;;;;19.36;100.00;94554.25;10529382;28;20031;-73
2021/06/19 17:30:04;;;;;;;9.60;6.22;;;;;;;19.11;100.00;94548.66;10529488;28;20081;-73
2021/06/19 17:35:07;;;;;;;12.13;7.03;;;;;;;18.84;100.00;94553.47;10528705;28;20069;-73
2021/06/19 17:40:08;;;;;;;8.80;6.47;;;;;;;18.84;100.00;94560.81;10529302;28;20027;-73
2021/06/19 17:45:09;;;;;;;10.77;7.50;;;;;;;18.43;100.00;94591.13;10528818;28;20846;-73
2021/06/19 17:50:10;;;;;;;10.20;8.10;;;;;;;18.41;100.00;94581.69;10528697;28;20032;-73
2021/06/19 17:55:11;;;;;;;10.45;6.15;;;;;;;18.51;100.00;94581.31;10528683;28;20032;-73
2021/06/19 18:00:12;;;;;;;13.05;7.30;;;;;;;18.60;100.00;94594.88;10527799;28;20919;-73
2021/06/19 18:05:13;;;;;;;10.52;7.07;;;;;;;18.66;100.00;94587.38;10527674;28;20584;-73
2021/06/19 18:10:14;;;;;;;13.23;8.20;;;;;;;18.61;100.00;94591.88;10526645;28;20172;-72
2021/06/19 18:15:15;;;;;;;12.98;6.57;;;;;;;18.70;100.00;94588.28;10532340;28;20847;-73
2021/06/19 18:20:18;;;;;;;11.23;7.35;;;;;;;18.57;100.00;94590.91;10536327;28;20058;-73
2021/06/19 18:25:19;;;;;;;9.93;6.15;;;;;;;18.54;100.00;94593.50;10536497;28;20024;-73
2021/06/19 18:30:20;;;;;;;7.63;5.88;;;;;;;18.48;100.00;94592.88;10536124;28;20035;-73
2021/06/19 18:35:22;;;;;;;14.50;6.63;;;;;;;18.38;100.00;94609.56;10534236;28;20074;-73
2021/06/19 18:40:23;;;;;;;10.20;8.02;;;;;;;18.25;100.00;94609.44;10536221;28;20039;-73
2021/06/19 18:45:23;;;;;;;11.73;7.95;;;;;;;18.14;100.00;94619.09;10535536;28;20671;-73
2021/06/19 18:50:24;;;;;;;19.77;11.70;;;;;;;18.10;100.00;94621.63;10535583;28;20103;-74
2021/06/19 18:55:25;;;;;;;13.65;8.15;;;;;;;18.05;100.00;94623.75;10535433;28;20035;-73
2021/06/19 19:00:25;;;;;;;10.20;6.63;;;;;;;18.01;100.00;94622.78;10535375;28;20030;-73
2021/06/19 19:05:26;;;;;;;11.68;5.88;;;;;;;17.98;100.00;94620.72;10534754;28;20028;-73
2021/06/19 19:10:26;;;;;;;7.83;5.53;;;;;;;17.87;100.00;94621.00;10534690;28;20023;-73
2021/06/19 19:15:27;;;;;;;6.63;4.57;;;;;;;17.88;100.00;94624.53;10533056;28;20270;-73
2021/06/19 19:20:27;;;;;;;5.07;4.13;;;;;;;17.82;100.00;94628.53;10532369;28;20277;-73
2021/06/19 19:25:28;;;;;;;6.20;3.55;;;;;;;17.72;100.00;94621.50;10531132;28;20031;-73
2021/06/19 19:30:29;;;;;;;5.43;3.42;;;;;;;17.68;100.00;94626.81;10534291;28;20024;-73
2021/06/19 19:35:30;;;;;;;6.35;3.75;;;;;;;17.69;100.00;94635.75;10533418;28;20180;-73
2021/06/19 19:40:30;;;;;;;7.27;3.30;;;;;;;17.59;100.00;94645.81;10533599;28;20035;-73
2021/06/19 19:45:31;;;;;;;5.53;3.80;;;;;;;17.37;100.00;94654.13;10533401;28;20269;-73
2021/06/19 19:50:31;;;;;;;6.63;3.70;;;;;;;17.35;100.00;94668.00;10533311;28;20776;-73
2021/06/19 19:55:32;;;;;;;6.50;4.40;;;;;;;17.23;100.00;94657.78;10533169;28;20038;-73
2021/06/19 20:00:32;;;;;;;7.20;4.55;;;;;;;17.18;100.00;94660.66;10503869;28;20085;-73
2021/06/19 20:05:33;;;;;;;6.93;4.30;;;;;;;17.30;100.00;94656.50;10490755;28;20024;-74
2021/06/19 20:10:34;;;;;;;5.80;4.22;;;;;;;17.22;100.00;94655.41;10510563;28;20073;-73
2021/06/19 20:15:35;;;;;;;6.57;4.40;;;;;;;17.13;100.00;94682.50;10530364;28;20478;-73
2021/06/19 20:20:36;;;;;;;7.72;4.55;;;;;;;17.24;100.00;94677.59;10530642;28;20030;-74
2021/06/19 20:25:36;;;;;;;7.25;4.10;;;;;;;17.32;100.00;94674.09;10530538;28;20024;-73
2021/06/19 20:30:37;;;;;;;5.53;4.43;;;;;;;17.07;100.00;94676.44;10531461;28;20028;-73
2021/06/19 20:35:37;;;;;;;11.20;4.78;;;;;;;16.94;100.00;94680.09;10531423;28;20294;-73
2021/06/19 20:40:37;;;;;;;9.32;5.07;;;;;;;17.18;100.00;94689.72;10530282;28;20494;-73
2021/06/19 20:45:38;;;;;;;7.93;4.23;;;;;;;17.34;100.00;94688.13;10531281;28;20052;-73
2021/06/19 20:50:38;;;;;;;9.85;3.85;;;;;;;17.47;100.00;94697.28;10530784;28;20024;-74
2021/06/19 20:55:39;;;;;;;11.43;4.70;;;;;;;17.56;100.00;94691.84;10530429;28;20019;-73
2021/06/19 21:00:40;;;;;;;7.10;4.05;;;;;;;17.57;100.00;94704.34;10530603;28;20391;-73
2021/06/19 21:05:40;;;;;;;5.82;3.63;;;;;;;17.51;100.00;94706.41;10530515;28;20020;-73
2021/06/19 21:10:40;;;;;;;4.57;2.73;;;;;;;17.36;100.00;94706.88;10528321;28;20762;-73
2021/06/19 21:15:47;;;;;;;10.17;2.70;;;;;;;17.20;100.00;94704.56;10507285;28;20086;-73
2021/06/19 21:20:49;;;;;;;4.55;2.53;;;;;;;17.25;100.00;94709.06;10503750;28;20059;-73
2021/06/19 21:25:50;;;;;;;6.15;3.40;;;;;;;17.24;100.00;94700.09;10487845;28;20464;-73
2021/06/19 21:30:50;;;;;;;8.68;4.18;;;;;;;17.21;100.00;94692.59;10487588;28;20032;-73
2021/06/19 21:35:51;;;;;;;5.27;3.00;;;;;;;17.21;100.00;94692.59;10486962;28;20049;-73
2021/06/19 21:40:51;;;;;;;5.65;2.85;;;;;;;17.26;100.00;94678.06;10487317;28;20024;-73
2021/06/19 21:45:53;;;;;;;8.98;3.60;;;;;;;17.21;100.00;94668.16;10486949;28;20013;-73
2021/06/19 21:50:54;;;;;;;4.10;3.00;;;;;;;17.08;100.00;94671.81;10486644;28;20383;-73
2021/06/19 21:55:55;;;;;;;8.23;3.03;;;;;;;16.85;100.00;94671.84;10486821;28;20029;-73
2021/06/19 22:00:55;;;;;;;5.60;3.25;;;;;;;16.83;100.00;94660.53;10487074;28;20526;-73
2021/06/19 22:05:57;;;;;;;3.75;2.58;;;;;;;16.83;100.00;94660.53;10486814;28;20029;-73
2021/06/19 22:10:57;;;;;;;5.18;2.55;;;;;;;17.01;100.00;94661.41;10486602;28;20090;-73
2021/06/19 22:15:57;;;;;;;8.53;3.13;;;;;;;17.12;100.00;94663.81;10487138;28;20120;-73
2021/06/19 22:20:58;;;;;;;4.77;3.07;;;;;;;17.20;100.00;94650.25;10487106;28;20036;-73
2021/06/19 22:26:01;;;;;;;4.82;3.10;;;;;;;17.22;100.00;94650.75;10486251;28;20024;-73
2021/06/19 22:31:02;;;;;;;3.65;2.38;;;;;;;17.17;100.00;94640.03;10486585;28;20116;-73
2021/06/19 22:36:03;;;;;;;4.55;2.70;;;;;;;17.14;100.00;94643.38;10486051;28;20083;-73
2021/06/19 22:41:03;;;;;;;3.72;2.47;;;;;;;16.99;100.00;94632.97;10486331;28;20128;-73
2021/06/19 22:46:04;;;;;;;4.25;2.35;;;;;;;16.90;100.00;94641.91;10486480;28;20028;-73
2021/06/19 22:51:04;;;;;;;9.93;3.20;;;;;;;16.83;100.00;94641.53;10486100;28;20055;-73
2021/06/19 22:56:05;;;;;;;6.10;3.97;;;;;;;16.79;100.00;94627.00;10485904;28;20547;-73
2021/06/19 23:01:06;;;;;;;6.07;3.85;;;;;;;16.73;100.00;94617.38;10488520;28;20107;-73